Laketown, Wisconsin
Current Conditions -  °F | °C
As of 4:34 AM on Sunday 26 Oct 2014 (Local Time) from KROS Reporting Station
Clear Clear  
Wind Chill: 31°   Ceiling: Unl
Heat Index: 31°   Visibility: 10mi
Dew Point: 27°   Wind: 0mph
Humidity: 85%   Direction: NA
Pressure: 30.01"   Gusts: NA
Location:  45.5664°N, 92.6511°W
Report Text: KROS 260934Z AUTO 00000KT 10SM CLR M01/M03 A3001 RMK AO2 T10061028
Loading
Personal Weather Stations






























Interactive Weather Map
Tropical Storm Tracking
New forecast layout! Learn more

10-Day Weather Forecast

Advertisements
Track Severe Weather on mobile